sensor_id;sensor_type;location;lat;lon;timestamp;P1;durP1;ratioP1;P2;durP2;ratioP2
58460;SDS011;45558;37.752;-97.822;2022-07-24T00:01:50;6.50;;;3.30;;
58460;SDS011;45558;37.752;-97.822;2022-07-24T00:04:16;8.65;;;3.70;;
58460;SDS011;45558;37.752;-97.822;2022-07-24T00:06:42;7.18;;;3.50;;
58460;SDS011;45558;37.752;-97.822;2022-07-24T00:09:08;10.85;;;3.50;;
58460;SDS011;45558;37.752;-97.822;2022-07-24T00:11:33;9.05;;;3.90;;
58460;SDS011;45558;37.752;-97.822;2022-07-24T00:13:59;8.30;;;3.53;;
58460;SDS011;45558;37.752;-97.822;2022-07-24T00:16:25;9.75;;;3.80;;
58460;SDS011;45558;37.752;-97.822;2022-07-24T00:22:13;7.28;;;3.60;;
58460;SDS011;45558;37.752;-97.822;2022-07-24T00:24:39;8.98;;;3.90;;
58460;SDS011;45558;37.752;-97.822;2022-07-24T00:27:05;6.85;;;3.03;;
58460;SDS011;45558;37.752;-97.822;2022-07-24T00:29:31;5.22;;;3.50;;
58460;SDS011;45558;37.752;-97.822;2022-07-24T00:31:56;8.43;;;3.35;;
58460;SDS011;45558;37.752;-97.822;2022-07-24T00:34:22;15.75;;;10.15;;
58460;SDS011;45558;37.752;-97.822;2022-07-24T00:36:48;8.00;;;3.42;;
58460;SDS011;45558;37.752;-97.822;2022-07-24T00:39:13;6.82;;;3.53;;
58460;SDS011;45558;37.752;-97.822;2022-07-24T00:41:39;7.47;;;3.28;;
58460;SDS011;45558;37.752;-97.822;2022-07-24T00:44:07;6.15;;;2.97;;
58460;SDS011;45558;37.752;-97.822;2022-07-24T00:46:38;6.53;;;2.95;;
58460;SDS011;45558;37.752;-97.822;2022-07-24T00:49:06;7.35;;;3.95;;
58460;SDS011;45558;37.752;-97.822;2022-07-24T00:51:34;15.88;;;9.20;;
58460;SDS011;45558;37.752;-97.822;2022-07-24T00:54:04;6.93;;;4.70;;
58460;SDS011;45558;37.752;-97.822;2022-07-24T00:56:30;10.77;;;4.70;;
58460;SDS011;45558;37.752;-97.822;2022-07-24T00:58:56;14.13;;;4.32;;
58460;SDS011;45558;37.752;-97.822;2022-07-24T01:01:22;12.07;;;4.97;;
58460;SDS011;45558;37.752;-97.822;2022-07-24T01:03:47;10.05;;;5.18;;
58460;SDS011;45558;37.752;-97.822;2022-07-24T01:06:13;10.25;;;4.78;;
58460;SDS011;45558;37.752;-97.822;2022-07-24T01:12:01;7.28;;;3.88;;
58460;SDS011;45558;37.752;-97.822;2022-07-24T01:14:27;6.43;;;3.40;;
58460;SDS011;45558;37.752;-97.822;2022-07-24T01:16:53;6.45;;;3.83;;
58460;SDS011;45558;37.752;-97.822;2022-07-24T01:19:19;5.57;;;2.70;;
58460;SDS011;45558;37.752;-97.822;2022-07-24T01:21:46;8.75;;;3.67;;
58460;SDS011;45558;37.752;-97.822;2022-07-24T01:24:13;9.05;;;4.05;;
58460;SDS011;45558;37.752;-97.822;2022-07-24T01:26:39;13.57;;;3.85;;
58460;SDS011;45558;37.752;-97.822;2022-07-24T01:29:04;8.10;;;3.10;;
58460;SDS011;45558;37.752;-97.822;2022-07-24T01:31:30;7.43;;;2.75;;
58460;SDS011;45558;37.752;-97.822;2022-07-24T01:33:56;7.35;;;2.50;;
58460;SDS011;45558;37.752;-97.822;2022-07-24T01:36:22;6.07;;;2.55;;
58460;SDS011;45558;37.752;-97.822;2022-07-24T01:42:09;5.70;;;3.05;;
58460;SDS011;45558;37.752;-97.822;2022-07-24T01:44:35;7.22;;;2.00;;
58460;SDS011;45558;37.752;-97.822;2022-07-24T01:47:00;5.05;;;2.53;;
58460;SDS011;45558;37.752;-97.822;2022-07-24T01:49:27;8.88;;;2.80;;
58460;SDS011;45558;37.752;-97.822;2022-07-24T01:51:52;3.85;;;1.95;;
58460;SDS011;45558;37.752;-97.822;2022-07-24T01:54:19;3.63;;;2.70;;
58460;SDS011;45558;37.752;-97.822;2022-07-24T01:56:44;3.38;;;1.73;;
58460;SDS011;45558;37.752;-97.822;2022-07-24T01:59:10;3.53;;;1.58;;
58460;SDS011;45558;37.752;-97.822;2022-07-24T02:01:36;6.50;;;3.00;;
58460;SDS011;45558;37.752;-97.822;2022-07-24T02:04:02;5.45;;;3.35;;
58460;SDS011;45558;37.752;-97.822;2022-07-24T02:06:27;3.25;;;1.90;;
58460;SDS011;45558;37.752;-97.822;2022-07-24T02:08:53;3.92;;;1.48;;
58460;SDS011;45558;37.752;-97.822;2022-07-24T02:11:20;6.57;;;2.15;;
58460;SDS011;45558;37.752;-97.822;2022-07-24T02:13:46;6.07;;;2.72;;
58460;SDS011;45558;37.752;-97.822;2022-07-24T02:16:12;5.38;;;2.40;;
58460;SDS011;45558;37.752;-97.822;2022-07-24T02:18:38;5.32;;;3.03;;
58460;SDS011;45558;37.752;-97.822;2022-07-24T02:21:04;10.65;;;3.38;;
58460;SDS011;45558;37.752;-97.822;2022-07-24T02:23:30;14.88;;;4.22;;
58460;SDS011;45558;37.752;-97.822;2022-07-24T02:25:55;10.98;;;3.20;;
58460;SDS011;45558;37.752;-97.822;2022-07-24T02:28:21;11.90;;;3.53;;
58460;SDS011;45558;37.752;-97.822;2022-07-24T02:30:47;14.38;;;4.10;;
58460;SDS011;45558;37.752;-97.822;2022-07-24T02:33:12;12.95;;;3.65;;
58460;SDS011;45558;37.752;-97.822;2022-07-24T02:35:38;15.32;;;5.10;;
58460;SDS011;45558;37.752;-97.822;2022-07-24T02:38:04;19.50;;;6.30;;
58460;SDS011;45558;37.752;-97.822;2022-07-24T02:40:31;15.27;;;4.85;;
58460;SDS011;45558;37.752;-97.822;2022-07-24T02:42:57;14.90;;;6.00;;
58460;SDS011;45558;37.752;-97.822;2022-07-24T02:45:22;18.25;;;5.80;;
58460;SDS011;45558;37.752;-97.822;2022-07-24T02:47:52;18.55;;;5.07;;
58460;SDS011;45558;37.752;-97.822;2022-07-24T02:50:19;14.80;;;4.18;;
58460;SDS011;45558;37.752;-97.822;2022-07-24T02:52:47;15.38;;;4.70;;
58460;SDS011;45558;37.752;-97.822;2022-07-24T02:55:13;22.98;;;5.70;;
58460;SDS011;45558;37.752;-97.822;2022-07-24T02:57:39;14.32;;;4.28;;
58460;SDS011;45558;37.752;-97.822;2022-07-24T03:00:07;23.02;;;4.78;;
58460;SDS011;45558;37.752;-97.822;2022-07-24T03:02:34;15.98;;;6.40;;
58460;SDS011;45558;37.752;-97.822;2022-07-24T03:05:00;15.18;;;4.60;;
58460;SDS011;45558;37.752;-97.822;2022-07-24T03:07:27;10.00;;;4.40;;
58460;SDS011;45558;37.752;-97.822;2022-07-24T03:09:53;14.75;;;4.07;;
58460;SDS011;45558;37.752;-97.822;2022-07-24T03:12:19;13.35;;;4.25;;
58460;SDS011;45558;37.752;-97.822;2022-07-24T03:14:44;23.35;;;4.30;;
58460;SDS011;45558;37.752;-97.822;2022-07-24T03:17:10;12.13;;;3.60;;
58460;SDS011;45558;37.752;-97.822;2022-07-24T03:19:36;19.50;;;5.00;;
58460;SDS011;45558;37.752;-97.822;2022-07-24T03:22:02;18.15;;;5.05;;
58460;SDS011;45558;37.752;-97.822;2022-07-24T03:24:28;16.38;;;3.72;;
58460;SDS011;45558;37.752;-97.822;2022-07-24T03:26:54;16.13;;;4.30;;
58460;SDS011;45558;37.752;-97.822;2022-07-24T03:29:20;18.15;;;4.93;;
58460;SDS011;45558;37.752;-97.822;2022-07-24T03:31:46;9.73;;;3.85;;
58460;SDS011;45558;37.752;-97.822;2022-07-24T03:37:34;21.13;;;5.20;;
58460;SDS011;45558;37.752;-97.822;2022-07-24T03:40:00;16.92;;;4.18;;
58460;SDS011;45558;37.752;-97.822;2022-07-24T03:42:26;18.23;;;4.47;;
58460;SDS011;45558;37.752;-97.822;2022-07-24T03:44:52;11.65;;;4.28;;
58460;SDS011;45558;37.752;-97.822;2022-07-24T03:47:18;12.07;;;3.95;;
58460;SDS011;45558;37.752;-97.822;2022-07-24T03:49:44;16.98;;;5.20;;
58460;SDS011;45558;37.752;-97.822;2022-07-24T03:52:10;16.58;;;3.78;;
58460;SDS011;45558;37.752;-97.822;2022-07-24T03:54:36;12.90;;;4.03;;
58460;SDS011;45558;37.752;-97.822;2022-07-24T03:57:03;16.77;;;4.20;;
58460;SDS011;45558;37.752;-97.822;2022-07-24T03:59:29;14.05;;;4.10;;
58460;SDS011;45558;37.752;-97.822;2022-07-24T04:01:55;18.00;;;4.30;;
58460;SDS011;45558;37.752;-97.822;2022-07-24T04:04:21;14.82;;;3.45;;
58460;SDS011;45558;37.752;-97.822;2022-07-24T04:06:47;12.82;;;4.00;;
58460;SDS011;45558;37.752;-97.822;2022-07-24T04:09:13;15.93;;;4.88;;
58460;SDS011;45558;37.752;-97.822;2022-07-24T04:11:39;15.60;;;4.32;;
58460;SDS011;45558;37.752;-97.822;2022-07-24T04:14:05;18.25;;;4.63;;
58460;SDS011;45558;37.752;-97.822;2022-07-24T04:16:31;19.92;;;4.50;;
58460;SDS011;45558;37.752;-97.822;2022-07-24T04:18:57;14.52;;;3.58;;
58460;SDS011;45558;37.752;-97.822;2022-07-24T04:21:23;20.08;;;4.95;;
58460;SDS011;45558;37.752;-97.822;2022-07-24T04:23:48;14.57;;;4.10;;
58460;SDS011;45558;37.752;-97.822;2022-07-24T04:26:14;16.77;;;4.63;;
58460;SDS011;45558;37.752;-97.822;2022-07-24T04:28:40;14.18;;;4.10;;
58460;SDS011;45558;37.752;-97.822;2022-07-24T04:31:07;21.30;;;4.68;;
58460;SDS011;45558;37.752;-97.822;2022-07-24T04:33:33;21.77;;;4.95;;
58460;SDS011;45558;37.752;-97.822;2022-07-24T04:35:58;15.48;;;3.88;;
58460;SDS011;45558;37.752;-97.822;2022-07-24T04:38:24;13.43;;;3.33;;
58460;SDS011;45558;37.752;-97.822;2022-07-24T04:40:50;17.02;;;3.85;;
58460;SDS011;45558;37.752;-97.822;2022-07-24T04:43:16;13.52;;;3.40;;
58460;SDS011;45558;37.752;-97.822;2022-07-24T04:45:41;17.83;;;3.72;;
58460;SDS011;45558;37.752;-97.822;2022-07-24T04:48:07;13.95;;;3.38;;
58460;SDS011;45558;37.752;-97.822;2022-07-24T04:50:33;13.55;;;3.30;;
58460;SDS011;45558;37.752;-97.822;2022-07-24T04:52:59;19.67;;;4.60;;
58460;SDS011;45558;37.752;-97.822;2022-07-24T04:55:24;18.35;;;3.25;;
58460;SDS011;45558;37.752;-97.822;2022-07-24T04:57:50;31.17;;;5.15;;
58460;SDS011;45558;37.752;-97.822;2022-07-24T05:00:16;12.85;;;3.25;;
58460;SDS011;45558;37.752;-97.822;2022-07-24T05:02:42;19.67;;;4.65;;
58460;SDS011;45558;37.752;-97.822;2022-07-24T05:05:08;9.70;;;3.00;;
58460;SDS011;45558;37.752;-97.822;2022-07-24T05:07:34;15.27;;;3.75;;
58460;SDS011;45558;37.752;-97.822;2022-07-24T05:09:59;13.43;;;3.45;;
58460;SDS011;45558;37.752;-97.822;2022-07-24T05:12:25;12.38;;;3.30;;
58460;SDS011;45558;37.752;-97.822;2022-07-24T05:14:51;14.23;;;3.60;;
58460;SDS011;45558;37.752;-97.822;2022-07-24T05:17:18;20.00;;;5.47;;
58460;SDS011;45558;37.752;-97.822;2022-07-24T05:19:43;17.90;;;3.72;;
58460;SDS011;45558;37.752;-97.822;2022-07-24T05:22:09;14.57;;;3.40;;
58460;SDS011;45558;37.752;-97.822;2022-07-24T05:24:35;17.40;;;4.05;;
58460;SDS011;45558;37.752;-97.822;2022-07-24T05:27:00;16.95;;;3.45;;
58460;SDS011;45558;37.752;-97.822;2022-07-24T05:29:26;14.65;;;3.45;;
58460;SDS011;45558;37.752;-97.822;2022-07-24T05:31:52;12.40;;;3.65;;
58460;SDS011;45558;37.752;-97.822;2022-07-24T05:34:19;11.10;;;2.95;;
58460;SDS011;45558;37.752;-97.822;2022-07-24T05:36:48;18.88;;;3.78;;
58460;SDS011;45558;37.752;-97.822;2022-07-24T05:39:14;11.27;;;3.25;;
58460;SDS011;45558;37.752;-97.822;2022-07-24T05:41:40;17.88;;;3.60;;
58460;SDS011;45558;37.752;-97.822;2022-07-24T05:44:05;16.35;;;3.95;;
58460;SDS011;45558;37.752;-97.822;2022-07-24T05:46:31;15.07;;;3.90;;
58460;SDS011;45558;37.752;-97.822;2022-07-24T05:52:18;14.23;;;3.25;;
58460;SDS011;45558;37.752;-97.822;2022-07-24T05:54:44;10.25;;;3.30;;
58460;SDS011;45558;37.752;-97.822;2022-07-24T05:57:10;13.25;;;3.75;;
58460;SDS011;45558;37.752;-97.822;2022-07-24T05:59:35;18.63;;;3.25;;
58460;SDS011;45558;37.752;-97.822;2022-07-24T06:02:01;11.57;;;3.97;;
58460;SDS011;45558;37.752;-97.822;2022-07-24T06:04:29;17.08;;;3.85;;
58460;SDS011;45558;37.752;-97.822;2022-07-24T06:06:55;11.95;;;3.05;;
58460;SDS011;45558;37.752;-97.822;2022-07-24T06:12:43;15.00;;;3.65;;
58460;SDS011;45558;37.752;-97.822;2022-07-24T06:15:09;15.70;;;3.35;;
58460;SDS011;45558;37.752;-97.822;2022-07-24T06:17:34;14.18;;;3.55;;
58460;SDS011;45558;37.752;-97.822;2022-07-24T06:20:00;16.98;;;3.75;;
58460;SDS011;45558;37.752;-97.822;2022-07-24T06:22:26;15.25;;;3.33;;
58460;SDS011;45558;37.752;-97.822;2022-07-24T06:24:52;13.48;;;3.53;;
58460;SDS011;45558;37.752;-97.822;2022-07-24T06:27:17;19.42;;;4.13;;
58460;SDS011;45558;37.752;-97.822;2022-07-24T06:29:43;18.42;;;4.93;;
58460;SDS011;45558;37.752;-97.822;2022-07-24T06:32:09;20.02;;;4.72;;
58460;SDS011;45558;37.752;-97.822;2022-07-24T06:34:35;14.40;;;4.90;;
58460;SDS011;45558;37.752;-97.822;2022-07-24T06:37:01;11.48;;;2.88;;
58460;SDS011;45558;37.752;-97.822;2022-07-24T06:39:26;11.77;;;3.80;;
58460;SDS011;45558;37.752;-97.822;2022-07-24T06:41:52;13.30;;;3.58;;
58460;SDS011;45558;37.752;-97.822;2022-07-24T06:44:19;15.73;;;3.90;;
58460;SDS011;45558;37.752;-97.822;2022-07-24T06:46:44;13.60;;;3.25;;
58460;SDS011;45558;37.752;-97.822;2022-07-24T06:49:10;12.20;;;3.75;;
58460;SDS011;45558;37.752;-97.822;2022-07-24T06:51:36;15.90;;;4.40;;
58460;SDS011;45558;37.752;-97.822;2022-07-24T06:54:02;18.58;;;4.18;;
58460;SDS011;45558;37.752;-97.822;2022-07-24T06:56:27;14.07;;;3.58;;
58460;SDS011;45558;37.752;-97.822;2022-07-24T06:58:53;17.13;;;4.38;;
58460;SDS011;45558;37.752;-97.822;2022-07-24T07:01:18;20.40;;;4.40;;
58460;SDS011;45558;37.752;-97.822;2022-07-24T07:03:44;15.30;;;4.22;;
58460;SDS011;45558;37.752;-97.822;2022-07-24T07:06:10;14.98;;;4.18;;
58460;SDS011;45558;37.752;-97.822;2022-07-24T07:08:36;16.17;;;4.43;;
58460;SDS011;45558;37.752;-97.822;2022-07-24T07:11:01;13.57;;;4.15;;
58460;SDS011;45558;37.752;-97.822;2022-07-24T07:13:28;16.92;;;4.40;;
58460;SDS011;45558;37.752;-97.822;2022-07-24T07:15:53;15.63;;;4.30;;
58460;SDS011;45558;37.752;-97.822;2022-07-24T07:18:19;12.50;;;4.30;;
58460;SDS011;45558;37.752;-97.822;2022-07-24T07:20:45;16.48;;;3.83;;
58460;SDS011;45558;37.752;-97.822;2022-07-24T07:23:12;13.45;;;3.72;;
58460;SDS011;45558;37.752;-97.822;2022-07-24T07:25:38;12.82;;;3.33;;
58460;SDS011;45558;37.752;-97.822;2022-07-24T07:28:05;16.63;;;3.85;;
58460;SDS011;45558;37.752;-97.822;2022-07-24T07:30:35;15.07;;;3.85;;
58460;SDS011;45558;37.752;-97.822;2022-07-24T07:33:04;12.07;;;4.15;;
58460;SDS011;45558;37.752;-97.822;2022-07-24T07:35:33;9.63;;;2.90;;
58460;SDS011;45558;37.752;-97.822;2022-07-24T07:38:01;11.10;;;4.03;;
58460;SDS011;45558;37.752;-97.822;2022-07-24T07:40:29;12.35;;;4.10;;
58460;SDS011;45558;37.752;-97.822;2022-07-24T07:42:56;13.00;;;3.13;;
58460;SDS011;45558;37.752;-97.822;2022-07-24T07:45:25;11.52;;;3.50;;
58460;SDS011;45558;37.752;-97.822;2022-07-24T07:47:51;10.18;;;3.42;;
58460;SDS011;45558;37.752;-97.822;2022-07-24T07:50:17;13.20;;;3.63;;
58460;SDS011;45558;37.752;-97.822;2022-07-24T07:52:43;12.07;;;4.97;;
58460;SDS011;45558;37.752;-97.822;2022-07-24T07:55:09;9.45;;;2.90;;
58460;SDS011;45558;37.752;-97.822;2022-07-24T07:57:36;13.38;;;3.22;;
58460;SDS011;45558;37.752;-97.822;2022-07-24T08:00:03;8.68;;;2.72;;
58460;SDS011;45558;37.752;-97.822;2022-07-24T08:02:29;12.57;;;3.38;;
58460;SDS011;45558;37.752;-97.822;2022-07-24T08:04:55;13.98;;;3.45;;
58460;SDS011;45558;37.752;-97.822;2022-07-24T08:07:21;7.13;;;2.80;;
58460;SDS011;45558;37.752;-97.822;2022-07-24T08:09:48;10.55;;;3.78;;
58460;SDS011;45558;37.752;-97.822;2022-07-24T08:12:14;12.75;;;3.13;;
58460;SDS011;45558;37.752;-97.822;2022-07-24T08:14:40;10.57;;;2.83;;
58460;SDS011;45558;37.752;-97.822;2022-07-24T08:17:06;11.18;;;3.08;;
58460;SDS011;45558;37.752;-97.822;2022-07-24T08:19:32;16.33;;;3.40;;
58460;SDS011;45558;37.752;-97.822;2022-07-24T08:21:58;9.35;;;3.67;;
58460;SDS011;45558;37.752;-97.822;2022-07-24T08:24:24;10.68;;;3.88;;
58460;SDS011;45558;37.752;-97.822;2022-07-24T08:26:50;12.35;;;3.22;;
58460;SDS011;45558;37.752;-97.822;2022-07-24T08:29:16;8.15;;;2.40;;
58460;SDS011;45558;37.752;-97.822;2022-07-24T08:31:42;8.35;;;2.95;;
58460;SDS011;45558;37.752;-97.822;2022-07-24T08:34:08;11.77;;;2.95;;
58460;SDS011;45558;37.752;-97.822;2022-07-24T08:36:34;10.85;;;3.10;;
58460;SDS011;45558;37.752;-97.822;2022-07-24T08:39:00;14.35;;;3.97;;
58460;SDS011;45558;37.752;-97.822;2022-07-24T08:41:30;13.80;;;3.28;;
58460;SDS011;45558;37.752;-97.822;2022-07-24T08:43:59;13.25;;;3.70;;
58460;SDS011;45558;37.752;-97.822;2022-07-24T08:46:25;12.70;;;2.92;;
58460;SDS011;45558;37.752;-97.822;2022-07-24T08:48:52;8.90;;;2.92;;
58460;SDS011;45558;37.752;-97.822;2022-07-24T08:51:18;11.23;;;3.65;;
58460;SDS011;45558;37.752;-97.822;2022-07-24T08:53:44;12.38;;;2.80;;
58460;SDS011;45558;37.752;-97.822;2022-07-24T08:56:12;13.10;;;4.28;;
58460;SDS011;45558;37.752;-97.822;2022-07-24T08:58:39;6.47;;;2.90;;
58460;SDS011;45558;37.752;-97.822;2022-07-24T09:01:06;13.60;;;3.22;;
58460;SDS011;45558;37.752;-97.822;2022-07-24T09:03:39;12.18;;;3.00;;
58460;SDS011;45558;37.752;-97.822;2022-07-24T09:06:07;8.88;;;2.28;;
58460;SDS011;45558;37.752;-97.822;2022-07-24T09:08:34;11.00;;;2.38;;
58460;SDS011;45558;37.752;-97.822;2022-07-24T09:11:01;14.57;;;3.30;;
58460;SDS011;45558;37.752;-97.822;2022-07-24T09:13:29;14.48;;;2.72;;
58460;SDS011;45558;37.752;-97.822;2022-07-24T09:16:18;9.70;;;3.13;;
58460;SDS011;45558;37.752;-97.822;2022-07-24T09:18:50;9.80;;;3.03;;
58460;SDS011;45558;37.752;-97.822;2022-07-24T09:21:18;15.85;;;3.65;;
58460;SDS011;45558;37.752;-97.822;2022-07-24T09:23:44;9.05;;;2.78;;
58460;SDS011;45558;37.752;-97.822;2022-07-24T09:26:10;6.63;;;2.30;;
58460;SDS011;45558;37.752;-97.822;2022-07-24T09:28:53;13.65;;;3.10;;
58460;SDS011;45558;37.752;-97.822;2022-07-24T09:31:19;10.20;;;2.95;;
58460;SDS011;45558;37.752;-97.822;2022-07-24T09:33:50;10.27;;;3.08;;
58460;SDS011;45558;37.752;-97.822;2022-07-24T09:36:17;7.88;;;2.65;;
58460;SDS011;45558;37.752;-97.822;2022-07-24T09:42:07;7.07;;;2.17;;
58460;SDS011;45558;37.752;-97.822;2022-07-24T09:44:33;9.20;;;2.65;;
58460;SDS011;45558;37.752;-97.822;2022-07-24T09:47:04;8.68;;;2.83;;
58460;SDS011;45558;37.752;-97.822;2022-07-24T09:49:31;7.85;;;2.65;;
58460;SDS011;45558;37.752;-97.822;2022-07-24T09:52:14;7.70;;;3.03;;
58460;SDS011;45558;37.752;-97.822;2022-07-24T09:54:43;8.82;;;2.55;;
58460;SDS011;45558;37.752;-97.822;2022-07-24T09:57:20;13.27;;;2.95;;
58460;SDS011;45558;37.752;-97.822;2022-07-24T09:59:54;7.47;;;2.25;;
58460;SDS011;45558;37.752;-97.822;2022-07-24T10:02:27;5.85;;;2.78;;
58460;SDS011;45558;37.752;-97.822;2022-07-24T10:04:58;9.95;;;3.28;;
58460;SDS011;45558;37.752;-97.822;2022-07-24T10:07:26;8.25;;;2.80;;
58460;SDS011;45558;37.752;-97.822;2022-07-24T10:09:54;8.60;;;2.58;;
58460;SDS011;45558;37.752;-97.822;2022-07-24T10:12:22;11.98;;;3.20;;
58460;SDS011;45558;37.752;-97.822;2022-07-24T10:14:54;8.05;;;2.63;;
58460;SDS011;45558;37.752;-97.822;2022-07-24T10:17:53;10.45;;;2.90;;
58460;SDS011;45558;37.752;-97.822;2022-07-24T10:20:36;8.13;;;2.28;;
58460;SDS011;45558;37.752;-97.822;2022-07-24T10:23:06;7.35;;;2.20;;
58460;SDS011;45558;37.752;-97.822;2022-07-24T10:25:38;10.52;;;3.22;;
58460;SDS011;45558;37.752;-97.822;2022-07-24T10:28:41;10.15;;;2.25;;
58460;SDS011;45558;37.752;-97.822;2022-07-24T10:31:09;7.50;;;2.15;;
58460;SDS011;45558;37.752;-97.822;2022-07-24T10:33:37;9.07;;;2.85;;
58460;SDS011;45558;37.752;-97.822;2022-07-24T10:36:07;7.90;;;2.47;;
58460;SDS011;45558;37.752;-97.822;2022-07-24T10:42:03;4.47;;;2.10;;
58460;SDS011;45558;37.752;-97.822;2022-07-24T10:44:30;5.00;;;2.00;;
58460;SDS011;45558;37.752;-97.822;2022-07-24T10:46:59;7.22;;;2.28;;
58460;SDS011;45558;37.752;-97.822;2022-07-24T10:49:42;7.07;;;2.30;;
58460;SDS011;45558;37.752;-97.822;2022-07-24T10:52:22;9.38;;;2.13;;
58460;SDS011;45558;37.752;-97.822;2022-07-24T11:00:20;6.57;;;2.22;;
58460;SDS011;45558;37.752;-97.822;2022-07-24T11:02:56;5.57;;;2.03;;
58460;SDS011;45558;37.752;-97.822;2022-07-24T11:05:34;6.22;;;2.28;;
58460;SDS011;45558;37.752;-97.822;2022-07-24T11:10:46;5.15;;;2.20;;
58460;SDS011;45558;37.752;-97.822;2022-07-24T11:21:07;4.85;;;1.88;;
58460;SDS011;45558;37.752;-97.822;2022-07-24T11:23:34;5.57;;;1.77;;
58460;SDS011;45558;37.752;-97.822;2022-07-24T11:29:16;9.70;;;2.40;;
58460;SDS011;45558;37.752;-97.822;2022-07-24T11:31:45;4.95;;;2.17;;
58460;SDS011;45558;37.752;-97.822;2022-07-24T11:34:12;5.97;;;2.13;;
58460;SDS011;45558;37.752;-97.822;2022-07-24T11:36:43;4.50;;;1.95;;
58460;SDS011;45558;37.752;-97.822;2022-07-24T11:39:11;6.20;;;2.40;;
58460;SDS011;45558;37.752;-97.822;2022-07-24T11:41:53;2.95;;;2.00;;
58460;SDS011;45558;37.752;-97.822;2022-07-24T11:44:38;5.65;;;2.05;;
58460;SDS011;45558;37.752;-97.822;2022-07-24T11:47:10;5.43;;;1.92;;
58460;SDS011;45558;37.752;-97.822;2022-07-24T11:49:42;5.35;;;2.25;;
58460;SDS011;45558;37.752;-97.822;2022-07-24T11:52:14;7.45;;;2.10;;
58460;SDS011;45558;37.752;-97.822;2022-07-24T11:54:43;5.60;;;2.90;;
58460;SDS011;45558;37.752;-97.822;2022-07-24T11:57:22;11.20;;;2.25;;
58460;SDS011;45558;37.752;-97.822;2022-07-24T11:59:53;3.85;;;1.98;;
58460;SDS011;45558;37.752;-97.822;2022-07-24T12:02:20;8.18;;;1.98;;
58460;SDS011;45558;37.752;-97.822;2022-07-24T12:04:49;4.47;;;2.03;;
58460;SDS011;45558;37.752;-97.822;2022-07-24T12:07:17;8.18;;;2.40;;
58460;SDS011;45558;37.752;-97.822;2022-07-24T12:09:49;5.13;;;1.52;;
58460;SDS011;45558;37.752;-97.822;2022-07-24T12:12:20;4.50;;;1.80;;
58460;SDS011;45558;37.752;-97.822;2022-07-24T12:14:59;3.65;;;1.60;;
58460;SDS011;45558;37.752;-97.822;2022-07-24T12:17:28;7.03;;;1.92;;
58460;SDS011;45558;37.752;-97.822;2022-07-24T12:19:56;3.90;;;1.80;;
58460;SDS011;45558;37.752;-97.822;2022-07-24T12:22:25;2.40;;;1.35;;
58460;SDS011;45558;37.752;-97.822;2022-07-24T12:24:52;4.43;;;2.10;;
58460;SDS011;45558;37.752;-97.822;2022-07-24T12:27:33;8.43;;;1.90;;
58460;SDS011;45558;37.752;-97.822;2022-07-24T12:30:00;4.40;;;1.95;;
58460;SDS011;45558;37.752;-97.822;2022-07-24T12:32:26;5.75;;;2.53;;
58460;SDS011;45558;37.752;-97.822;2022-07-24T12:34:53;6.65;;;2.67;;
58460;SDS011;45558;37.752;-97.822;2022-07-24T12:37:19;4.90;;;2.10;;
58460;SDS011;45558;37.752;-97.822;2022-07-24T12:39:47;10.77;;;2.20;;
58460;SDS011;45558;37.752;-97.822;2022-07-24T12:42:13;4.88;;;1.85;;
58460;SDS011;45558;37.752;-97.822;2022-07-24T12:44:41;5.57;;;1.83;;
58460;SDS011;45558;37.752;-97.822;2022-07-24T12:47:08;8.70;;;2.63;;
58460;SDS011;45558;37.752;-97.822;2022-07-24T12:49:42;7.05;;;2.30;;
58460;SDS011;45558;37.752;-97.822;2022-07-24T12:52:21;4.90;;;1.95;;
58460;SDS011;45558;37.752;-97.822;2022-07-24T12:54:49;8.93;;;2.00;;
58460;SDS011;45558;37.752;-97.822;2022-07-24T12:57:16;4.82;;;1.83;;
58460;SDS011;45558;37.752;-97.822;2022-07-24T12:59:45;6.75;;;1.77;;
58460;SDS011;45558;37.752;-97.822;2022-07-24T13:02:17;11.38;;;3.40;;
58460;SDS011;45558;37.752;-97.822;2022-07-24T13:04:52;5.60;;;2.38;;
58460;SDS011;45558;37.752;-97.822;2022-07-24T13:07:20;4.50;;;2.38;;
58460;SDS011;45558;37.752;-97.822;2022-07-24T13:09:49;4.43;;;1.75;;
58460;SDS011;45558;37.752;-97.822;2022-07-24T13:12:16;6.07;;;1.95;;
58460;SDS011;45558;37.752;-97.822;2022-07-24T13:14:44;6.60;;;2.25;;
58460;SDS011;45558;37.752;-97.822;2022-07-24T13:17:11;9.00;;;2.33;;
58460;SDS011;45558;37.752;-97.822;2022-07-24T13:19:39;5.30;;;2.28;;
58460;SDS011;45558;37.752;-97.822;2022-07-24T13:22:08;4.85;;;2.25;;
58460;SDS011;45558;37.752;-97.822;2022-07-24T13:24:36;7.35;;;2.35;;
58460;SDS011;45558;37.752;-97.822;2022-07-24T13:27:05;6.65;;;2.30;;
58460;SDS011;45558;37.752;-97.822;2022-07-24T13:29:32;5.68;;;2.63;;
58460;SDS011;45558;37.752;-97.822;2022-07-24T13:32:02;8.93;;;5.50;;
58460;SDS011;45558;37.752;-97.822;2022-07-24T13:34:29;3.88;;;2.25;;
58460;SDS011;45558;37.752;-97.822;2022-07-24T13:36:59;6.32;;;3.17;;
58460;SDS011;45558;37.752;-97.822;2022-07-24T13:39:26;11.35;;;3.83;;
58460;SDS011;45558;37.752;-97.822;2022-07-24T13:41:52;3.30;;;1.98;;
58460;SDS011;45558;37.752;-97.822;2022-07-24T13:44:18;4.10;;;1.48;;
58460;SDS011;45558;37.752;-97.822;2022-07-24T13:46:44;3.42;;;1.42;;
58460;SDS011;45558;37.752;-97.822;2022-07-24T13:49:10;4.20;;;1.40;;
58460;SDS011;45558;37.752;-97.822;2022-07-24T13:51:39;2.80;;;1.33;;
58460;SDS011;45558;37.752;-97.822;2022-07-24T13:54:05;4.80;;;1.10;;
58460;SDS011;45558;37.752;-97.822;2022-07-24T13:56:31;2.42;;;1.13;;
58460;SDS011;45558;37.752;-97.822;2022-07-24T13:58:59;6.13;;;1.20;;
58460;SDS011;45558;37.752;-97.822;2022-07-24T14:01:25;2.60;;;1.15;;
58460;SDS011;45558;37.752;-97.822;2022-07-24T14:03:51;1.67;;;0.63;;
58460;SDS011;45558;37.752;-97.822;2022-07-24T14:06:19;4.82;;;0.80;;
58460;SDS011;45558;37.752;-97.822;2022-07-24T14:12:10;2.72;;;0.60;;
58460;SDS011;45558;37.752;-97.822;2022-07-24T14:14:38;1.87;;;0.73;;
58460;SDS011;45558;37.752;-97.822;2022-07-24T14:17:05;4.45;;;0.70;;
58460;SDS011;45558;37.752;-97.822;2022-07-24T14:19:31;1.92;;;0.90;;
58460;SDS011;45558;37.752;-97.822;2022-07-24T14:21:57;1.88;;;0.70;;
58460;SDS011;45558;37.752;-97.822;2022-07-24T14:24:24;1.50;;;0.80;;
58460;SDS011;45558;37.752;-97.822;2022-07-24T14:26:50;2.20;;;0.63;;
58460;SDS011;45558;37.752;-97.822;2022-07-24T14:29:20;1.83;;;0.63;;
58460;SDS011;45558;37.752;-97.822;2022-07-24T14:31:51;1.92;;;0.57;;
58460;SDS011;45558;37.752;-97.822;2022-07-24T14:34:20;1.40;;;0.50;;
58460;SDS011;45558;37.752;-97.822;2022-07-24T14:36:47;1.67;;;0.60;;
58460;SDS011;45558;37.752;-97.822;2022-07-24T14:39:13;2.20;;;0.60;;
58460;SDS011;45558;37.752;-97.822;2022-07-24T14:41:43;1.38;;;0.60;;
58460;SDS011;45558;37.752;-97.822;2022-07-24T14:44:10;1.02;;;0.40;;
58460;SDS011;45558;37.752;-97.822;2022-07-24T14:46:39;2.03;;;0.87;;
58460;SDS011;45558;37.752;-97.822;2022-07-24T14:49:07;2.45;;;0.73;;
58460;SDS011;45558;37.752;-97.822;2022-07-24T14:51:34;1.98;;;0.40;;
58460;SDS011;45558;37.752;-97.822;2022-07-24T14:54:01;1.25;;;0.50;;
58460;SDS011;45558;37.752;-97.822;2022-07-24T14:56:31;1.88;;;0.47;;
58460;SDS011;45558;37.752;-97.822;2022-07-24T14:58:58;3.60;;;0.52;;
58460;SDS011;45558;37.752;-97.822;2022-07-24T15:01:25;1.83;;;0.30;;
58460;SDS011;45558;37.752;-97.822;2022-07-24T15:03:51;1.65;;;0.40;;
58460;SDS011;45558;37.752;-97.822;2022-07-24T15:06:18;5.10;;;0.70;;
58460;SDS011;45558;37.752;-97.822;2022-07-24T15:08:46;4.05;;;0.60;;